createdAt,value
2018-08-28T00:01:07.536Z,5.30
2018-08-28T00:03:35.554Z,4.60
2018-08-28T00:06:03.709Z,5.00
2018-08-28T00:08:31.729Z,4.90
2018-08-28T00:10:59.850Z,4.60
2018-08-28T00:13:27.870Z,4.80
2018-08-28T00:15:55.880Z,5.10
2018-08-28T00:18:23.906Z,4.80
2018-08-28T00:20:51.904Z,5.30
2018-08-28T00:23:19.901Z,4.73
2018-08-28T00:25:47.939Z,4.63
2018-08-28T00:28:15.945Z,4.80
2018-08-28T00:30:43.949Z,4.43
2018-08-28T00:33:12.047Z,6.10
2018-08-28T00:35:40.120Z,4.80
2018-08-28T00:38:08.408Z,5.30
2018-08-28T00:40:36.574Z,4.40
2018-08-28T00:43:04.581Z,6.87
2018-08-28T00:45:32.612Z,4.47
2018-08-28T00:48:00.665Z,4.70
2018-08-28T00:50:28.701Z,4.50
2018-08-28T00:52:56.750Z,4.23
2018-08-28T00:55:24.997Z,4.40
2018-08-28T00:57:53.128Z,4.70
2018-08-28T01:00:21.157Z,4.30
2018-08-28T01:02:49.166Z,4.70
2018-08-28T01:05:17.165Z,4.10
2018-08-28T01:07:45.157Z,4.60
2018-08-28T01:10:13.188Z,4.80
2018-08-28T01:12:41.193Z,4.40
2018-08-28T01:15:09.348Z,4.70
2018-08-28T01:17:37.405Z,4.07
2018-08-28T01:20:05.881Z,4.77
2018-08-28T01:22:33.885Z,4.10
2018-08-28T01:25:02.023Z,4.03
2018-08-28T01:27:30.208Z,4.20
2018-08-28T01:29:58.257Z,3.40
2018-08-28T01:32:26.301Z,3.50
2018-08-28T01:34:54.321Z,4.23
2018-08-28T01:37:22.333Z,3.83
2018-08-28T01:39:50.322Z,4.37
2018-08-28T01:42:22.113Z,4.07
2018-08-28T01:44:50.488Z,3.80
2018-08-28T01:47:18.832Z,4.30
2018-08-28T01:49:46.865Z,4.97
2018-08-28T01:52:14.943Z,4.43
2018-08-28T01:54:43.009Z,3.53
2018-08-28T01:57:11.013Z,5.00
2018-08-28T01:59:39.063Z,5.03
2018-08-28T02:02:07.089Z,4.40
2018-08-28T02:04:35.078Z,4.53
2018-08-28T02:07:03.332Z,4.10
2018-08-28T02:09:31.362Z,4.90
2018-08-28T02:11:59.399Z,4.37
2018-08-28T02:14:27.428Z,5.53
2018-08-28T02:16:55.465Z,5.93
2018-08-28T02:19:23.477Z,4.83
2018-08-28T02:21:51.554Z,4.67
2018-08-28T02:24:19.565Z,5.20
2018-08-28T02:26:47.649Z,4.57
2018-08-28T02:29:15.665Z,5.30
2018-08-28T02:31:43.705Z,5.70
2018-08-28T02:34:11.909Z,4.80
2018-08-28T02:36:39.959Z,4.70
2018-08-28T02:39:09.350Z,4.47
2018-08-28T02:41:37.673Z,5.80
2018-08-28T02:44:05.736Z,4.33
2018-08-28T02:46:34.014Z,5.33
2018-08-28T02:49:02.014Z,5.13
2018-08-28T02:51:30.020Z,4.93
2018-08-28T02:53:58.144Z,4.97
2018-08-28T02:56:26.312Z,6.07
2018-08-28T02:58:54.337Z,4.77
2018-08-28T03:01:22.344Z,5.03
2018-08-28T03:03:50.504Z,4.73
2018-08-28T03:06:18.552Z,5.93
2018-08-28T03:08:46.549Z,5.77
2018-08-28T03:11:15.034Z,4.67
2018-08-28T03:13:43.005Z,4.73
2018-08-28T03:16:11.100Z,5.17
2018-08-28T03:18:39.052Z,5.70
2018-08-28T03:21:07.072Z,5.53
2018-08-28T03:23:35.123Z,5.30
2018-08-28T03:26:03.148Z,4.87
2018-08-28T03:28:31.143Z,5.13
2018-08-28T03:30:59.197Z,5.23
2018-08-28T03:33:27.241Z,6.87
2018-08-28T03:35:55.299Z,5.53
2018-08-28T03:38:23.307Z,5.20
2018-08-28T03:40:51.305Z,5.67
2018-08-28T03:43:19.689Z,5.77
2018-08-28T03:45:47.915Z,5.83
2018-08-28T03:48:15.936Z,5.53
2018-08-28T03:50:43.964Z,5.93
2018-08-28T03:53:11.990Z,6.20
2018-08-28T03:55:40.009Z,5.60
2018-08-28T03:58:08.265Z,5.53
2018-08-28T04:00:36.283Z,5.80
2018-08-28T04:03:04.300Z,6.37
2018-08-28T04:05:32.304Z,5.77
2018-08-28T04:08:00.341Z,7.70
2018-08-28T04:10:28.779Z,7.07
2018-08-28T04:12:57.049Z,5.80
2018-08-28T04:15:25.204Z,6.57
2018-08-28T04:17:53.201Z,7.47
2018-08-28T04:20:21.955Z,6.17
2018-08-28T04:22:49.977Z,6.70
2018-08-28T04:25:18.715Z,5.87
2018-08-28T04:27:47.429Z,6.57
2018-08-28T04:30:15.493Z,6.50
2018-08-28T04:32:43.510Z,6.13
2018-08-28T04:35:11.604Z,6.87
2018-08-28T04:37:39.631Z,6.33
2018-08-28T04:40:07.829Z,6.27
2018-08-28T04:42:35.841Z,5.83
2018-08-28T04:45:03.996Z,6.13
2018-08-28T04:47:32.131Z,5.47
2018-08-28T04:50:00.144Z,5.73
2018-08-28T04:52:28.329Z,7.33
2018-08-28T04:54:56.396Z,5.80
2018-08-28T04:57:24.448Z,7.03
2018-08-28T04:59:52.500Z,6.20
2018-08-28T05:02:20.577Z,6.47
2018-08-28T05:04:49.004Z,6.10
2018-08-28T05:07:17.005Z,5.90
2018-08-28T05:09:45.020Z,6.73
2018-08-28T05:12:13.116Z,5.87
2018-08-28T05:14:41.132Z,6.40
2018-08-28T05:17:09.167Z,6.63
2018-08-28T05:19:37.170Z,6.30
2018-08-28T05:22:05.260Z,5.70
2018-08-28T05:24:33.260Z,5.93
2018-08-28T05:27:01.253Z,6.00
2018-08-28T05:29:29.252Z,5.67
2018-08-28T05:31:58.067Z,4.43
2018-08-28T05:34:26.073Z,5.50
2018-08-28T05:36:54.090Z,5.30
2018-08-28T05:39:22.106Z,4.50
2018-08-28T05:41:50.132Z,4.70
2018-08-28T05:44:18.188Z,4.83
2018-08-28T05:46:46.218Z,5.17
2018-08-28T05:49:14.268Z,4.90
2018-08-28T05:51:42.288Z,4.80
2018-08-28T05:54:10.320Z,5.23
2018-08-28T05:56:39.373Z,3.90
2018-08-28T05:59:07.538Z,4.70
2018-08-28T06:01:35.600Z,5.40
2018-08-28T06:04:03.673Z,4.87
2018-08-28T06:06:31.718Z,5.30
2018-08-28T06:08:59.797Z,4.80
2018-08-28T06:11:27.794Z,5.77
2018-08-28T06:13:56.513Z,4.67
2018-08-28T06:16:24.575Z,4.70
2018-08-28T06:18:52.584Z,4.40
2018-08-28T06:21:20.581Z,4.63
2018-08-28T06:23:48.617Z,4.80
2018-08-28T06:26:16.680Z,4.77
2018-08-28T06:28:44.732Z,3.93
2018-08-28T06:31:12.825Z,5.17
2018-08-28T06:33:40.824Z,4.17
2018-08-28T06:36:08.863Z,4.40
2018-08-28T06:38:36.892Z,4.13
2018-08-28T06:41:04.900Z,4.13
2018-08-28T06:43:32.962Z,4.53
2018-08-28T06:46:00.909Z,4.00
2018-08-28T06:48:28.966Z,4.00
2018-08-28T06:50:56.971Z,4.17
2018-08-28T06:53:24.981Z,4.60
2018-08-28T06:55:53.092Z,3.93
2018-08-28T06:58:21.205Z,4.10
2018-08-28T07:00:49.200Z,3.47
2018-08-28T07:03:17.280Z,4.60
2018-08-28T07:05:45.305Z,3.60
2018-08-28T07:08:13.307Z,3.60
2018-08-28T07:10:41.309Z,3.60
2018-08-28T07:13:09.308Z,3.83
2018-08-28T07:15:37.328Z,3.70
2018-08-28T07:18:05.363Z,3.60
2018-08-28T07:20:33.511Z,3.10
2018-08-28T07:23:01.505Z,3.20
2018-08-28T07:25:29.519Z,3.50
2018-08-28T07:27:57.493Z,3.23
2018-08-28T07:30:25.521Z,3.57
2018-08-28T07:32:53.573Z,3.37
2018-08-28T07:35:21.572Z,3.60
2018-08-28T07:37:49.574Z,3.43
2018-08-28T07:40:17.634Z,3.10
2018-08-28T07:42:45.765Z,3.33
2018-08-28T07:45:13.781Z,2.60
2018-08-28T07:47:41.829Z,3.50
2018-08-28T07:50:09.834Z,3.03
2018-08-28T07:52:37.884Z,3.10
2018-08-28T07:55:06.271Z,2.67
2018-08-28T07:57:34.261Z,3.40
2018-08-28T08:00:02.262Z,2.43
2018-08-28T08:02:30.277Z,2.20
2018-08-28T08:04:58.265Z,2.60
2018-08-28T08:07:26.861Z,2.13
2018-08-28T08:09:54.873Z,2.60
2018-08-28T08:12:22.877Z,2.20
2018-08-28T08:14:50.883Z,2.30
2018-08-28T08:17:18.862Z,2.57
2018-08-28T08:19:46.881Z,2.50
2018-08-28T08:22:14.954Z,2.57
2018-08-28T08:24:43.500Z,2.50
2018-08-28T08:27:11.489Z,2.67
2018-08-28T08:29:39.518Z,2.70
2018-08-28T08:32:07.792Z,2.20
2018-08-28T08:34:35.820Z,2.10
2018-08-28T08:37:03.902Z,1.93
2018-08-28T08:39:31.932Z,2.17
2018-08-28T08:42:00.035Z,2.67
2018-08-28T08:44:27.997Z,2.43
2018-08-28T08:46:56.013Z,2.00
2018-08-28T08:49:24.010Z,2.03
2018-08-28T08:51:52.021Z,2.30
2018-08-28T08:54:20.008Z,2.30
2018-08-28T08:56:48.074Z,2.30
2018-08-28T08:59:16.139Z,2.07
2018-08-28T09:01:44.141Z,2.63
2018-08-28T09:04:12.125Z,2.30
2018-08-28T09:06:40.124Z,3.03
2018-08-28T09:09:08.364Z,2.23
2018-08-28T09:11:36.360Z,2.43
2018-08-28T09:14:04.369Z,2.90
2018-08-28T09:16:32.445Z,1.70
2018-08-28T09:19:00.453Z,2.00
2018-08-28T09:21:28.497Z,2.20
2018-08-28T09:23:57.585Z,2.43
2018-08-28T09:26:25.580Z,2.53
2018-08-28T09:28:53.584Z,2.53
2018-08-28T09:31:21.581Z,3.40
2018-08-28T09:33:49.568Z,2.80
2018-08-28T09:36:17.601Z,2.47
2018-08-28T09:38:45.620Z,1.97
2018-08-28T09:41:13.634Z,1.80
2018-08-28T09:43:41.642Z,2.07
2018-08-28T09:46:09.653Z,2.17
2018-08-28T09:48:37.637Z,1.63
2018-08-28T09:51:05.710Z,1.53
2018-08-28T09:53:33.628Z,1.60
2018-08-28T09:56:01.711Z,2.27
2018-08-28T09:58:29.685Z,2.10
2018-08-28T10:01:03.041Z,1.80
2018-08-28T10:03:31.130Z,1.70
2018-08-28T10:05:59.125Z,2.20
2018-08-28T10:08:27.116Z,2.20
2018-08-28T10:10:55.255Z,2.00
2018-08-28T10:13:23.561Z,2.23
2018-08-28T10:15:51.674Z,2.50
2018-08-28T10:18:19.669Z,2.33
2018-08-28T10:20:47.806Z,1.80
2018-08-28T10:23:15.813Z,2.53
2018-08-28T10:25:43.809Z,1.40
2018-08-28T10:28:11.804Z,1.50
2018-08-28T10:30:39.809Z,2.00
2018-08-28T10:33:07.968Z,1.90
2018-08-28T10:35:35.967Z,2.00
2018-08-28T10:38:04.002Z,1.63
2018-08-28T10:40:31.978Z,2.00
2018-08-28T10:42:59.991Z,1.87
2018-08-28T10:45:27.988Z,1.70
2018-08-28T10:47:55.985Z,1.40
2018-08-28T10:50:23.997Z,2.07
2018-08-28T10:52:52.066Z,1.80
2018-08-28T10:55:19.990Z,1.90
2018-08-28T10:57:48.060Z,2.47
2018-08-28T11:00:16.057Z,1.93
2018-08-28T11:02:44.076Z,1.90
2018-08-28T11:05:12.089Z,1.90
2018-08-28T11:07:40.099Z,2.10
2018-08-28T11:10:08.677Z,2.27
2018-08-28T11:12:36.752Z,2.10
2018-08-28T11:15:04.933Z,2.20
2018-08-28T11:17:33.000Z,2.27
2018-08-28T11:20:01.072Z,2.23
2018-08-28T11:22:29.224Z,1.80
2018-08-28T11:24:57.252Z,2.00
2018-08-28T11:27:25.297Z,1.73
2018-08-28T11:29:53.362Z,2.10
2018-08-28T11:32:21.413Z,2.30
2018-08-28T11:34:49.392Z,2.30
2018-08-28T11:37:17.407Z,2.80
2018-08-28T11:39:45.442Z,2.60
2018-08-28T11:42:13.492Z,2.30
2018-08-28T11:44:41.585Z,3.47
2018-08-28T11:47:09.664Z,3.30
2018-08-28T11:49:37.656Z,3.43
2018-08-28T11:52:05.662Z,2.70
2018-08-28T11:54:33.701Z,2.67
2018-08-28T11:57:01.929Z,3.13
2018-08-28T11:59:29.948Z,3.23
2018-08-28T12:01:57.998Z,2.67
2018-08-28T12:04:25.945Z,2.97
2018-08-28T12:06:54.015Z,3.70
2018-08-28T12:09:22.161Z,3.20
2018-08-28T12:11:50.153Z,2.87
2018-08-28T12:14:18.149Z,3.50
2018-08-28T12:16:46.150Z,4.00
2018-08-28T12:19:14.166Z,4.23
2018-08-28T12:21:42.227Z,3.77
2018-08-28T12:24:10.224Z,4.50
2018-08-28T12:26:38.259Z,4.70
2018-08-28T12:29:06.256Z,4.67
2018-08-28T12:31:34.275Z,4.50
2018-08-28T12:34:02.307Z,5.13
2018-08-28T12:36:30.419Z,4.77
2018-08-28T12:38:58.461Z,4.80
2018-08-28T12:41:26.661Z,4.70
2018-08-28T12:43:54.798Z,4.43
2018-08-28T12:46:23.797Z,4.60
2018-08-28T12:48:52.817Z,4.87
2018-08-28T12:51:20.993Z,5.13
2018-08-28T12:53:48.924Z,5.30
2018-08-28T12:56:16.937Z,4.73
2018-08-28T12:58:44.985Z,4.87
2018-08-28T13:01:13.059Z,4.87
2018-08-28T13:03:41.105Z,5.03
2018-08-28T13:06:09.213Z,5.30
2018-08-28T13:08:37.321Z,4.70
2018-08-28T13:11:05.554Z,5.07
2018-08-28T13:13:33.724Z,5.13
2018-08-28T13:16:01.823Z,5.30
2018-08-28T13:18:29.875Z,4.87
2018-08-28T13:20:57.923Z,5.03
2018-08-28T13:23:25.950Z,5.63
2018-08-28T13:25:54.200Z,5.03
2018-08-28T13:28:22.185Z,4.73
2018-08-28T13:30:50.187Z,4.40
2018-08-28T13:33:18.202Z,4.90
2018-08-28T13:35:46.274Z,6.83
2018-08-28T13:38:14.273Z,5.17
2018-08-28T13:40:42.513Z,5.00
2018-08-28T13:43:10.672Z,5.37
2018-08-28T13:45:38.650Z,4.50
2018-08-28T13:48:06.656Z,4.60
2018-08-28T13:50:34.754Z,4.23
2018-08-28T13:53:02.940Z,4.67
2018-08-28T13:55:31.165Z,5.23
2018-08-28T13:57:59.305Z,4.53
2018-08-28T14:00:27.343Z,5.00
2018-08-28T14:02:55.329Z,5.37
2018-08-28T14:05:23.380Z,5.17
2018-08-28T14:07:51.410Z,5.03
2018-08-28T14:10:19.401Z,5.43
2018-08-28T14:12:47.692Z,5.17
2018-08-28T14:15:15.698Z,5.23
2018-08-28T14:17:43.720Z,4.77
2018-08-28T14:20:11.722Z,4.53
2018-08-28T14:22:39.828Z,4.57
2018-08-28T14:25:07.729Z,4.60
2018-08-28T14:27:35.731Z,4.37
2018-08-28T14:30:04.833Z,4.85
2018-08-28T14:32:32.832Z,5.00
2018-08-28T14:35:00.905Z,4.70
2018-08-28T14:37:28.988Z,5.70
2018-08-28T14:39:56.981Z,5.57
2018-08-28T14:42:25.106Z,5.30
2018-08-28T14:44:53.114Z,4.53
2018-08-28T14:47:21.092Z,4.50
2018-08-28T14:49:49.165Z,4.80
2018-08-28T14:52:17.133Z,5.27
2018-08-28T14:54:45.197Z,5.40
2018-08-28T14:57:13.290Z,6.27
2018-08-28T14:59:41.222Z,4.60
2018-08-28T15:02:09.201Z,5.60
2018-08-28T15:04:37.204Z,5.20
2018-08-28T15:07:05.505Z,5.33
2018-08-28T15:09:33.594Z,5.50
2018-08-28T15:12:01.741Z,5.07
2018-08-28T15:14:29.846Z,5.50
2018-08-28T15:16:57.878Z,5.70
2018-08-28T15:19:26.003Z,5.80
2018-08-28T15:21:54.304Z,5.80
2018-08-28T15:24:22.457Z,5.27
2018-08-28T15:26:50.453Z,4.90
2018-08-28T15:29:18.449Z,5.83
2018-08-28T15:31:46.425Z,5.28
2018-08-28T15:34:14.466Z,6.10
2018-08-28T15:36:42.464Z,6.13
2018-08-28T15:39:10.473Z,6.67
2018-08-28T15:41:38.486Z,6.20
2018-08-28T15:44:06.518Z,6.10
2018-08-28T15:46:34.512Z,5.60
2018-08-28T15:49:03.674Z,5.50
2018-08-28T15:51:31.829Z,6.50
2018-08-28T15:53:59.845Z,5.97
2018-08-28T15:56:27.864Z,6.17
2018-08-28T15:58:56.026Z,6.90
2018-08-28T16:01:24.602Z,6.83
2018-08-28T16:03:52.610Z,7.20
2018-08-28T16:06:20.765Z,7.40
2018-08-28T16:08:48.774Z,6.40
2018-08-28T16:11:16.776Z,5.57
2018-08-28T16:13:44.859Z,6.13
2018-08-28T16:16:12.905Z,5.97
2018-08-28T16:18:41.004Z,5.30
2018-08-28T16:21:09.066Z,5.53
2018-08-28T16:23:39.530Z,6.27
2018-08-28T16:26:07.569Z,5.93
2018-08-28T16:28:35.580Z,7.20
2018-08-28T16:31:03.629Z,6.30
2018-08-28T16:33:31.677Z,7.17
2018-08-28T16:35:59.793Z,6.80
2018-08-28T16:38:27.832Z,7.07
2018-08-28T16:40:55.930Z,5.77
2018-08-28T16:43:23.865Z,6.87
2018-08-28T16:45:51.985Z,6.57
2018-08-28T16:48:20.057Z,6.90
2018-08-28T16:50:48.065Z,6.63
2018-08-28T16:53:16.097Z,6.03
2018-08-28T16:55:44.231Z,6.80
2018-08-28T16:58:12.208Z,6.90
2018-08-28T17:00:40.384Z,6.93
2018-08-28T17:03:08.384Z,6.10
2018-08-28T17:05:36.665Z,6.30
2018-08-28T17:08:04.717Z,5.30
2018-08-28T17:10:32.872Z,5.67
2018-08-28T17:13:01.012Z,7.00
2018-08-28T17:15:29.105Z,6.43
2018-08-28T17:17:57.586Z,6.03
2018-08-28T17:20:25.668Z,6.37
2018-08-28T17:22:53.713Z,7.17
2018-08-28T17:25:21.950Z,6.57
2018-08-28T17:27:49.989Z,6.20
2018-08-28T17:30:18.067Z,7.63
2018-08-28T17:32:46.077Z,6.73
2018-08-28T17:35:20.813Z,7.20
2018-08-28T17:37:48.964Z,6.20
2018-08-28T17:40:17.017Z,6.53
2018-08-28T17:42:45.071Z,7.17
2018-08-28T17:45:13.169Z,6.37
2018-08-28T17:47:41.201Z,6.67
2018-08-28T17:50:09.207Z,7.30
2018-08-28T17:52:37.257Z,7.17
2018-08-28T17:55:05.565Z,6.30
2018-08-28T17:57:33.769Z,6.23
2018-08-28T18:00:01.923Z,6.83
2018-08-28T18:02:29.953Z,6.57
2018-08-28T18:04:58.061Z,7.33
2018-08-28T18:07:26.079Z,7.47
2018-08-28T18:09:54.085Z,6.47
2018-08-28T18:12:22.097Z,5.93
2018-08-28T18:14:50.158Z,7.90
2018-08-28T18:17:18.181Z,7.20
2018-08-28T18:19:46.307Z,8.97
2018-08-28T18:22:14.330Z,7.77
2018-08-28T18:24:42.466Z,7.20
2018-08-28T18:27:10.453Z,7.63
2018-08-28T18:29:38.454Z,6.30
2018-08-28T18:32:06.446Z,6.57
2018-08-28T18:34:34.724Z,7.37
2018-08-28T18:37:02.738Z,7.80
2018-08-28T18:39:30.773Z,6.63
2018-08-28T18:41:58.766Z,6.97
2018-08-28T18:44:26.789Z,7.47
2018-08-28T18:46:54.892Z,7.00
2018-08-28T18:49:22.876Z,7.77
2018-08-28T18:51:50.920Z,8.00
2018-08-28T18:54:19.220Z,8.03
2018-08-28T18:56:47.272Z,6.53
2018-08-28T18:59:15.282Z,7.63
2018-08-28T19:01:43.266Z,7.20
2018-08-28T19:04:11.479Z,7.20
2018-08-28T19:06:39.865Z,6.70
2018-08-28T19:09:07.935Z,7.70
2018-08-28T19:11:35.936Z,7.07
2018-08-28T19:14:03.933Z,7.73
2018-08-28T19:16:31.938Z,7.47
2018-08-28T19:18:59.976Z,7.33
2018-08-28T19:21:28.058Z,7.00
2018-08-28T19:23:56.216Z,7.97
2018-08-28T19:26:24.245Z,10.50
2018-08-28T19:28:52.301Z,10.70
2018-08-28T19:31:20.343Z,7.93
2018-08-28T19:33:48.373Z,7.40
2018-08-28T19:36:16.452Z,6.80
2018-08-28T19:38:44.464Z,8.10
2018-08-28T19:41:12.488Z,8.53
2018-08-28T19:43:40.516Z,8.23
2018-08-28T19:46:08.513Z,7.57
2018-08-28T19:48:36.553Z,7.30
2018-08-28T19:51:04.596Z,6.83
2018-08-28T19:53:32.911Z,8.60
2018-08-28T19:56:00.981Z,7.83
2018-08-28T19:58:29.158Z,7.53
2018-08-28T20:00:57.212Z,8.47
2018-08-28T20:03:25.321Z,8.20
2018-08-28T20:05:53.520Z,8.37
2018-08-28T20:08:21.490Z,8.40
2018-08-28T20:10:50.629Z,8.37
2018-08-28T20:13:18.645Z,8.40
2018-08-28T20:15:46.712Z,9.47
2018-08-28T20:18:14.773Z,9.30
2018-08-28T20:20:43.094Z,8.60
2018-08-28T20:23:10.971Z,8.67
2018-08-28T20:25:39.025Z,8.37
2018-08-28T20:28:07.030Z,8.93
2018-08-28T20:30:35.029Z,8.37
2018-08-28T20:33:03.017Z,7.53
2018-08-28T20:35:31.058Z,7.90
2018-08-28T20:37:59.134Z,9.27
2018-08-28T20:40:27.145Z,7.90
2018-08-28T20:42:55.145Z,8.30
2018-08-28T20:45:23.157Z,10.60
2018-08-28T20:47:51.251Z,9.40
2018-08-28T20:50:19.346Z,8.83
2018-08-28T20:52:47.355Z,8.20
2018-08-28T20:55:15.473Z,9.20
2018-08-28T20:57:43.525Z,8.10
2018-08-28T21:00:11.678Z,8.83
2018-08-28T21:02:39.679Z,7.80
2018-08-28T21:05:07.697Z,8.13
2018-08-28T21:07:35.765Z,8.43
2018-08-28T21:10:03.789Z,7.30
2018-08-28T21:12:31.794Z,9.30
2018-08-28T21:14:59.774Z,8.20
2018-08-28T21:17:27.921Z,8.17
2018-08-28T21:19:55.956Z,8.20
2018-08-28T21:22:23.977Z,8.90
2018-08-28T21:24:52.081Z,8.30
2018-08-28T21:27:20.168Z,8.27
2018-08-28T21:29:48.232Z,8.10
2018-08-28T21:32:17.406Z,8.30
2018-08-28T21:34:45.575Z,8.00
2018-08-28T21:37:13.589Z,7.20
2018-08-28T21:39:41.684Z,7.80
2018-08-28T21:42:09.827Z,8.27
2018-08-28T21:44:37.903Z,8.20
2018-08-28T21:47:05.892Z,7.73
2018-08-28T21:49:34.193Z,7.87
2018-08-28T21:52:02.224Z,7.97
2018-08-28T21:54:30.321Z,7.97
2018-08-28T21:56:58.419Z,8.53
2018-08-28T21:59:26.462Z,7.83
2018-08-28T22:01:54.581Z,7.00
2018-08-28T22:04:22.577Z,7.77
2018-08-28T22:06:56.030Z,7.10
2018-08-28T22:09:24.057Z,7.27
2018-08-28T22:11:52.082Z,7.93
2018-08-28T22:14:20.093Z,7.50
2018-08-28T22:16:48.109Z,8.13
2018-08-28T22:19:16.195Z,7.83
2018-08-28T22:21:44.201Z,7.57
2018-08-28T22:24:12.230Z,7.80
2018-08-28T22:26:40.228Z,6.60
2018-08-28T22:29:08.381Z,6.80
2018-08-28T22:31:36.404Z,6.40
2018-08-28T22:34:04.517Z,7.40
2018-08-28T22:36:32.726Z,8.10
2018-08-28T22:39:00.803Z,6.97
2018-08-28T22:41:28.825Z,8.50
2018-08-28T22:43:56.838Z,7.40
2018-08-28T22:46:24.880Z,7.70
2018-08-28T22:48:52.900Z,6.90
2018-08-28T22:51:20.925Z,6.90
2018-08-28T22:53:48.925Z,7.57
2018-08-28T22:56:16.949Z,6.93
2018-08-28T22:58:44.969Z,7.03
2018-08-28T23:01:12.986Z,6.63
2018-08-28T23:03:41.028Z,7.00
2018-08-28T23:06:09.071Z,7.20
2018-08-28T23:08:37.220Z,7.03
2018-08-28T23:11:05.374Z,7.47
2018-08-28T23:13:33.362Z,7.23
2018-08-28T23:16:01.374Z,7.83
2018-08-28T23:18:29.422Z,7.23
2018-08-28T23:20:57.407Z,6.20
2018-08-28T23:23:25.637Z,7.43
2018-08-28T23:25:53.629Z,6.50
2018-08-28T23:28:21.648Z,7.27
2018-08-28T23:30:49.636Z,7.33
2018-08-28T23:33:17.632Z,6.63
2018-08-28T23:35:45.727Z,8.87
2018-08-28T23:38:13.717Z,7.17
2018-08-28T23:40:41.720Z,7.70
2018-08-28T23:43:09.713Z,6.70
2018-08-28T23:45:37.735Z,7.13
2018-08-28T23:48:05.758Z,7.63
2018-08-28T23:50:33.800Z,6.87
2018-08-28T23:53:01.833Z,7.60
2018-08-28T23:55:29.868Z,7.47
2018-08-28T23:57:57.964Z,6.70
